createdAt,value
2023-04-27T00:01:11.132Z,0.10
2023-04-27T00:03:38.971Z,0.30
2023-04-27T00:06:06.462Z,0.20
2023-04-27T00:08:33.670Z,0.10
2023-04-27T00:11:00.867Z,0.30
2023-04-27T00:13:28.244Z,0.20
2023-04-27T00:15:55.913Z,0.20
2023-04-27T00:18:33.265Z,0.20
2023-04-27T00:21:00.292Z,0.20
2023-04-27T00:23:28.130Z,0.15
2023-04-27T00:25:55.233Z,0.20
2023-04-27T00:28:22.315Z,0.30
2023-04-27T00:30:49.123Z,0.20
2023-04-27T00:33:17.610Z,0.20
2023-04-27T00:35:44.506Z,0.30
2023-04-27T00:38:11.650Z,0.20
2023-04-27T00:40:39.212Z,0.20
2023-04-27T00:43:06.170Z,0.25
2023-04-27T00:45:36.058Z,0.30
2023-04-27T00:48:03.266Z,0.20
2023-04-27T00:50:31.331Z,0.20
2023-04-27T00:52:58.738Z,0.30
2023-04-27T00:55:25.942Z,0.30
2023-04-27T00:57:53.087Z,0.20
2023-04-27T01:00:19.922Z,0.20
2023-04-27T01:02:49.369Z,0.30
2023-04-27T01:05:16.731Z,0.20
2023-04-27T01:07:43.875Z,0.20
2023-04-27T01:10:10.878Z,0.20
2023-04-27T01:12:37.942Z,0.30
2023-04-27T01:15:06.849Z,0.20
2023-04-27T01:17:33.736Z,0.20
2023-04-27T01:20:02.351Z,0.30
2023-04-27T01:22:29.637Z,0.30
2023-04-27T01:24:56.394Z,0.20
2023-04-27T01:27:24.030Z,0.20
2023-04-27T01:29:51.437Z,0.28
2023-04-27T01:32:18.370Z,0.30
2023-04-27T01:34:45.478Z,0.20
2023-04-27T01:37:12.845Z,0.20
2023-04-27T01:39:39.732Z,0.25
2023-04-27T01:42:06.817Z,0.30
2023-04-27T01:44:34.008Z,0.20
2023-04-27T01:47:00.801Z,0.20
2023-04-27T01:49:27.781Z,0.20
2023-04-27T01:51:54.912Z,0.30
2023-04-27T01:54:21.798Z,0.20
2023-04-27T01:56:48.552Z,0.20
2023-04-27T01:59:15.420Z,0.20
2023-04-27T02:01:42.312Z,0.20
2023-04-27T02:04:09.508Z,0.20
2023-04-27T02:06:36.633Z,0.10
2023-04-27T02:09:03.598Z,0.20
2023-04-27T02:11:36.413Z,0.30
2023-04-27T02:14:03.921Z,0.20
2023-04-27T02:16:43.991Z,0.20
2023-04-27T02:19:10.898Z,0.20
2023-04-27T02:21:59.882Z,0.20
2023-04-27T02:24:26.763Z,0.20
2023-04-27T02:27:00.015Z,0.20
2023-04-27T02:29:32.701Z,0.20
2023-04-27T02:32:02.791Z,0.17
2023-04-27T02:34:29.660Z,0.20
2023-04-27T02:36:58.855Z,0.20
2023-04-27T02:39:25.806Z,0.15
2023-04-27T02:41:54.405Z,0.20
2023-04-27T02:44:22.637Z,0.30
2023-04-27T02:46:51.034Z,0.20
2023-04-27T02:49:17.910Z,0.10
2023-04-27T02:51:45.092Z,0.30
2023-04-27T02:54:12.069Z,0.30
2023-04-27T02:56:38.825Z,0.20
2023-04-27T02:59:06.091Z,0.20
2023-04-27T03:01:33.204Z,0.30
2023-04-27T03:04:00.334Z,0.20
2023-04-27T03:06:27.774Z,0.20
2023-04-27T03:08:54.507Z,0.20
2023-04-27T03:11:21.392Z,0.20
2023-04-27T03:13:48.214Z,0.30
2023-04-27T03:16:14.896Z,0.20
2023-04-27T03:18:41.731Z,0.20
2023-04-27T03:21:08.388Z,0.20
2023-04-27T03:23:35.549Z,0.30
2023-04-27T03:26:07.144Z,0.30
2023-04-27T03:28:34.578Z,0.20
2023-04-27T03:31:04.505Z,0.13
2023-04-27T03:33:31.187Z,0.30
2023-04-27T03:36:01.776Z,0.20
2023-04-27T03:38:28.602Z,0.20
2023-04-27T03:40:55.304Z,0.20
2023-04-27T03:43:22.817Z,0.20
2023-04-27T03:45:49.891Z,0.20
2023-04-27T03:48:17.071Z,0.17
2023-04-27T03:50:44.739Z,0.30
2023-04-27T03:53:11.478Z,0.20
2023-04-27T03:55:39.092Z,0.20
2023-04-27T03:58:06.451Z,0.20
2023-04-27T04:00:34.528Z,0.30
2023-04-27T04:03:01.532Z,0.20
2023-04-27T04:05:28.455Z,0.10
2023-04-27T04:07:55.169Z,0.30
2023-04-27T04:10:21.824Z,0.20
2023-04-27T04:12:48.569Z,0.20
2023-04-27T04:15:15.291Z,0.20
2023-04-27T04:17:42.098Z,0.30
2023-04-27T04:20:10.727Z,0.30
2023-04-27T04:22:38.125Z,0.13
2023-04-27T04:25:05.537Z,0.20
2023-04-27T04:27:32.338Z,0.30
2023-04-27T04:30:00.338Z,0.30
2023-04-27T04:32:31.309Z,0.20
2023-04-27T04:34:59.117Z,0.13
2023-04-27T04:37:25.888Z,0.30
2023-04-27T04:39:52.622Z,0.20
2023-04-27T04:42:19.381Z,0.20
2023-04-27T04:44:45.990Z,0.20
2023-04-27T04:47:13.157Z,0.30
2023-04-27T04:49:39.870Z,0.20
2023-04-27T04:52:07.054Z,0.10
2023-04-27T04:54:33.968Z,0.30
2023-04-27T04:57:02.288Z,0.20
2023-04-27T04:59:31.989Z,0.20
2023-04-27T05:01:59.009Z,0.20
2023-04-27T05:04:26.499Z,0.30
2023-04-27T05:06:53.434Z,0.20
2023-04-27T05:09:20.108Z,0.10
2023-04-27T05:11:46.871Z,0.30
2023-04-27T05:14:13.664Z,0.20
2023-04-27T05:16:40.419Z,0.20
2023-04-27T05:19:08.481Z,0.20
2023-04-27T05:21:35.390Z,0.20
2023-04-27T05:24:02.068Z,0.10
2023-04-27T05:26:28.912Z,0.20
2023-04-27T05:28:55.929Z,0.20
2023-04-27T05:31:22.666Z,0.10
2023-04-27T05:33:49.411Z,0.20
2023-04-27T05:36:16.180Z,0.20
2023-04-27T05:38:43.458Z,0.10
2023-04-27T05:41:10.273Z,0.20
2023-04-27T05:43:38.694Z,0.20
2023-04-27T05:46:05.738Z,0.20
2023-04-27T05:48:32.594Z,0.10
2023-04-27T05:51:01.479Z,0.20
2023-04-27T05:53:28.571Z,0.10
2023-04-27T05:55:56.458Z,0.20
2023-04-27T05:58:23.326Z,0.20
2023-04-27T06:00:50.554Z,0.15
2023-04-27T06:03:17.803Z,0.20
2023-04-27T06:05:44.921Z,0.20
2023-04-27T06:08:12.547Z,0.10
2023-04-27T06:10:39.713Z,0.20
2023-04-27T06:13:06.780Z,0.10
2023-04-27T06:15:33.651Z,0.20
2023-04-27T06:18:02.947Z,0.10
2023-04-27T06:20:32.853Z,0.10
2023-04-27T06:23:01.377Z,0.20
2023-04-27T06:25:28.684Z,0.10
2023-04-27T06:27:56.818Z,0.13
2023-04-27T06:30:24.930Z,0.10
2023-04-27T06:32:52.659Z,0.10
2023-04-27T06:35:19.604Z,0.20
2023-04-27T06:37:47.365Z,0.10
2023-04-27T06:40:14.527Z,0.10
2023-04-27T06:42:41.557Z,0.10
2023-04-27T06:45:08.962Z,0.15
2023-04-27T06:47:35.864Z,0.10
2023-04-27T06:50:02.694Z,0.10
2023-04-27T06:52:33.177Z,0.10
2023-04-27T06:54:59.988Z,0.10
2023-04-27T06:57:28.045Z,0.10
2023-04-27T06:59:54.804Z,0.17
2023-04-27T07:02:23.190Z,0.10
2023-04-27T07:04:52.008Z,0.10
2023-04-27T07:07:19.058Z,0.10
2023-04-27T07:09:45.988Z,0.10
2023-04-27T07:12:12.876Z,0.10
2023-04-27T07:14:39.921Z,0.10
2023-04-27T07:17:06.964Z,0.10
2023-04-27T07:19:33.831Z,0.10
2023-04-27T07:22:00.699Z,0.10
2023-04-27T07:24:27.621Z,0.10
2023-04-27T07:26:54.377Z,0.10
2023-04-27T07:29:27.096Z,0.10
2023-04-27T07:31:55.755Z,0.10
2023-04-27T07:34:23.234Z,0.10
2023-04-27T07:36:50.097Z,0.10
2023-04-27T07:39:17.318Z,0.10
2023-04-27T07:41:44.420Z,0.10
2023-04-27T07:44:12.323Z,0.10
2023-04-27T07:46:39.260Z,0.10
2023-04-27T07:49:06.252Z,0.10
2023-04-27T07:51:34.635Z,0.10
2023-04-27T07:54:03.591Z,0.10
2023-04-27T07:56:30.716Z,0.10
2023-04-27T07:58:57.913Z,0.10
2023-04-27T08:01:24.941Z,0.10
2023-04-27T08:03:52.265Z,0.10
2023-04-27T08:06:19.837Z,0.10
2023-04-27T08:08:46.849Z,0.10
2023-04-27T08:11:14.099Z,0.10
2023-04-27T08:13:41.067Z,0.10
2023-04-27T08:16:08.163Z,0.10
2023-04-27T08:18:35.077Z,0.10
2023-04-27T08:21:02.056Z,0.10
2023-04-27T08:23:29.887Z,0.10
2023-04-27T08:25:56.698Z,0.10
2023-04-27T08:28:23.701Z,0.10
2023-04-27T08:30:50.767Z,0.10
2023-04-27T08:33:17.995Z,0.10
2023-04-27T08:35:45.131Z,0.00
2023-04-27T08:38:12.049Z,0.10
2023-04-27T08:40:45.133Z,0.00
2023-04-27T08:43:12.239Z,0.10
2023-04-27T08:45:47.731Z,0.10
2023-04-27T08:48:14.795Z,0.00
2023-04-27T08:50:44.867Z,0.10
2023-04-27T08:53:22.514Z,0.10
2023-04-27T08:55:50.614Z,0.00
2023-04-27T08:58:18.004Z,0.00
2023-04-27T09:00:50.181Z,0.00
2023-04-27T09:03:25.038Z,0.00
2023-04-27T09:06:03.836Z,0.00
2023-04-27T09:08:49.406Z,0.00
2023-04-27T09:11:28.390Z,0.00
2023-04-27T09:13:58.291Z,0.00
2023-04-27T09:16:28.457Z,0.00
2023-04-27T09:18:56.934Z,0.00
2023-04-27T09:21:30.191Z,0.00
2023-04-27T09:23:59.655Z,0.00
2023-04-27T09:26:27.891Z,0.00
2023-04-27T09:28:59.132Z,0.00
2023-04-27T09:31:33.979Z,0.00
2023-04-27T09:34:01.227Z,0.00
2023-04-27T09:36:28.361Z,0.00
2023-04-27T09:38:55.164Z,0.00
2023-04-27T09:41:22.736Z,0.00
2023-04-27T09:43:50.006Z,0.00
2023-04-27T09:46:17.277Z,0.00
2023-04-27T09:48:44.620Z,0.00
2023-04-27T09:51:11.743Z,0.00
2023-04-27T09:53:54.533Z,0.00
2023-04-27T09:56:48.553Z,0.00
2023-04-27T09:59:35.800Z,0.00
2023-04-27T10:02:23.519Z,0.00
2023-04-27T10:05:26.605Z,0.00
2023-04-27T10:07:54.124Z,0.00
2023-04-27T10:10:21.136Z,0.00
2023-04-27T10:13:07.543Z,0.00
2023-04-27T10:15:40.421Z,0.00
2023-04-27T10:18:07.510Z,0.00
2023-04-27T10:20:37.714Z,0.00
2023-04-27T10:23:04.679Z,0.00
2023-04-27T10:25:40.678Z,0.00
2023-04-27T10:28:10.379Z,0.00
2023-04-27T10:30:39.278Z,0.00
2023-04-27T10:33:11.096Z,0.00
2023-04-27T10:35:39.278Z,0.00
2023-04-27T10:38:11.547Z,0.00
2023-04-27T10:40:41.918Z,0.00
2023-04-27T10:43:17.665Z,0.00
2023-04-27T10:45:58.396Z,0.00
2023-04-27T10:48:32.078Z,0.00
2023-04-27T10:51:01.291Z,0.00
2023-04-27T10:53:46.974Z,0.00
2023-04-27T10:56:24.764Z,0.00
2023-04-27T11:01:47.056Z,0.00
2023-04-27T11:04:22.635Z,0.00
2023-04-27T11:06:51.008Z,0.00
2023-04-27T11:09:47.865Z,0.00
2023-04-27T11:12:19.454Z,0.00
2023-04-27T11:14:46.702Z,0.00
2023-04-27T11:17:28.724Z,0.00
2023-04-27T11:19:56.235Z,0.00
2023-04-27T11:22:26.134Z,0.00
2023-04-27T11:24:55.218Z,0.00
2023-04-27T11:27:38.509Z,0.00
2023-04-27T11:30:24.755Z,0.00
2023-04-27T11:32:57.746Z,0.00
2023-04-27T11:35:39.165Z,0.00
2023-04-27T11:38:06.536Z,0.00
2023-04-27T11:40:38.392Z,0.00
2023-04-27T11:43:05.743Z,0.00
2023-04-27T11:45:36.434Z,0.00
2023-04-27T11:48:07.037Z,0.00
2023-04-27T11:50:45.120Z,0.00
2023-04-27T11:53:18.865Z,0.00
2023-04-27T11:55:52.716Z,0.00
2023-04-27T11:58:21.249Z,0.00
2023-04-27T12:00:51.198Z,0.00
2023-04-27T12:03:24.206Z,0.00
2023-04-27T12:05:52.989Z,0.00
2023-04-27T12:08:23.627Z,0.00
2023-04-27T12:10:51.306Z,0.00
2023-04-27T12:13:18.183Z,0.00
2023-04-27T12:15:45.092Z,0.00
2023-04-27T12:18:11.956Z,0.00
2023-04-27T12:20:38.801Z,0.00
2023-04-27T12:23:05.678Z,0.00
2023-04-27T12:25:32.540Z,0.00
2023-04-27T12:27:59.457Z,0.00
2023-04-27T12:30:26.439Z,0.00
2023-04-27T12:32:54.297Z,0.00
2023-04-27T12:35:21.248Z,0.00
2023-04-27T12:37:49.908Z,0.00
2023-04-27T12:40:17.273Z,0.00
2023-04-27T12:42:44.308Z,0.00
2023-04-27T12:45:11.329Z,0.00
2023-04-27T12:47:58.325Z,0.00
2023-04-27T12:50:25.162Z,0.00
2023-04-27T12:52:52.204Z,0.00
2023-04-27T12:55:31.555Z,0.00
2023-04-27T12:57:59.920Z,0.00
2023-04-27T13:00:26.971Z,0.00
2023-04-27T13:02:54.196Z,0.00
2023-04-27T13:05:22.487Z,0.00
2023-04-27T13:07:49.778Z,0.00
2023-04-27T13:10:22.290Z,0.00
2023-04-27T13:12:49.198Z,0.00
2023-04-27T13:15:16.042Z,0.00
2023-04-27T13:17:43.948Z,0.00
2023-04-27T13:20:11.689Z,0.00
2023-04-27T13:22:40.876Z,0.00
2023-04-27T13:25:12.471Z,0.00
2023-04-27T13:27:41.056Z,0.00
2023-04-27T13:30:08.893Z,0.00
2023-04-27T13:32:35.744Z,0.00
2023-04-27T13:35:02.686Z,0.00
2023-04-27T13:37:29.727Z,0.00
2023-04-27T13:39:57.346Z,0.00
2023-04-27T13:42:29.681Z,0.00
2023-04-27T13:44:59.266Z,0.00
2023-04-27T13:47:26.089Z,0.00
2023-04-27T13:49:53.066Z,0.00
2023-04-27T13:52:19.804Z,0.00
2023-04-27T13:54:46.851Z,0.00
2023-04-27T13:57:13.694Z,0.00
2023-04-27T13:59:40.468Z,0.00
2023-04-27T14:02:08.670Z,0.00
2023-04-27T14:04:37.676Z,0.00
2023-04-27T14:07:04.890Z,0.00
2023-04-27T14:09:34.657Z,0.00
2023-04-27T14:12:02.028Z,0.00
2023-04-27T14:14:29.574Z,0.00
2023-04-27T14:16:59.579Z,0.00
2023-04-27T14:19:30.565Z,0.00
2023-04-27T14:21:57.841Z,0.00
2023-04-27T14:24:24.699Z,0.00
2023-04-27T14:26:51.887Z,0.00
2023-04-27T14:29:19.568Z,0.00
2023-04-27T14:31:47.458Z,0.00
2023-04-27T14:34:14.675Z,0.00
2023-04-27T14:36:47.278Z,0.00
2023-04-27T14:39:14.578Z,0.00
2023-04-27T14:41:41.486Z,0.00
2023-04-27T14:44:14.010Z,0.00
2023-04-27T14:46:46.236Z,0.00
2023-04-27T14:49:16.543Z,0.00
2023-04-27T14:51:51.932Z,0.00
2023-04-27T14:54:19.054Z,0.00
2023-04-27T14:56:49.302Z,0.00
2023-04-27T14:59:16.618Z,0.00
2023-04-27T15:01:43.660Z,0.00
2023-04-27T15:04:11.881Z,0.00
2023-04-27T15:06:39.380Z,0.00
2023-04-27T15:09:06.286Z,0.00
2023-04-27T15:11:33.442Z,0.00
2023-04-27T15:14:00.224Z,0.00
2023-04-27T15:16:27.030Z,0.00
2023-04-27T15:18:53.949Z,0.00
2023-04-27T15:21:25.234Z,0.00
2023-04-27T15:23:54.925Z,0.00
2023-04-27T15:26:22.191Z,0.00
2023-04-27T15:28:49.437Z,0.00
2023-04-27T15:31:16.623Z,0.00
2023-04-27T15:33:43.872Z,0.00
2023-04-27T15:36:11.205Z,0.00
2023-04-27T15:38:38.169Z,0.00
2023-04-27T15:41:05.040Z,0.00
2023-04-27T15:43:31.919Z,0.00
2023-04-27T15:45:58.797Z,0.00
2023-04-27T15:48:26.073Z,0.00
2023-04-27T15:50:53.220Z,0.00
2023-04-27T15:53:20.228Z,0.00
2023-04-27T15:55:47.293Z,0.00
2023-04-27T15:58:14.676Z,0.00
2023-04-27T16:00:41.817Z,0.00
2023-04-27T16:03:11.319Z,0.00
2023-04-27T16:05:38.751Z,0.00
2023-04-27T16:08:06.234Z,0.00
2023-04-27T16:10:33.924Z,0.00
2023-04-27T16:13:00.836Z,0.00
2023-04-27T16:15:27.617Z,0.10
2023-04-27T16:17:54.389Z,0.00
2023-04-27T16:20:22.647Z,0.00
2023-04-27T16:22:49.296Z,0.00
2023-04-27T16:25:16.040Z,0.00
2023-04-27T16:27:43.473Z,0.00
2023-04-27T16:30:10.451Z,0.00
2023-04-27T16:32:38.451Z,0.00
2023-04-27T16:35:09.751Z,0.05
2023-04-27T16:37:40.085Z,0.10
2023-04-27T16:40:08.354Z,0.10
2023-04-27T16:42:35.559Z,0.00
2023-04-27T16:45:02.854Z,0.00
2023-04-27T16:47:31.651Z,0.05
2023-04-27T16:49:58.656Z,0.03
2023-04-27T16:52:25.438Z,0.10
2023-04-27T16:54:52.448Z,0.10
2023-04-27T16:57:20.373Z,0.10
2023-04-27T16:59:47.592Z,0.03
2023-04-27T17:02:24.630Z,0.00
2023-04-27T17:04:53.742Z,0.10
2023-04-27T17:07:20.809Z,0.00
2023-04-27T17:09:50.356Z,0.10
2023-04-27T17:12:17.480Z,0.10
2023-04-27T17:14:44.222Z,0.10
2023-04-27T17:17:11.824Z,0.05
2023-04-27T17:19:39.136Z,0.10
2023-04-27T17:22:08.267Z,0.10
2023-04-27T17:24:34.987Z,0.10
2023-04-27T17:27:01.892Z,0.10
2023-04-27T17:29:28.665Z,0.08
2023-04-27T17:31:55.419Z,0.10
2023-04-27T17:34:22.625Z,0.10
2023-04-27T17:36:49.429Z,0.10
2023-04-27T17:39:16.354Z,0.10
2023-04-27T17:41:43.187Z,0.10
2023-04-27T17:44:12.605Z,0.10
2023-04-27T17:46:45.170Z,0.10
2023-04-27T17:49:12.116Z,0.10
2023-04-27T17:51:39.099Z,0.10
2023-04-27T17:54:06.025Z,0.10
2023-04-27T17:56:32.882Z,0.10
2023-04-27T17:58:59.792Z,0.10
2023-04-27T18:01:26.643Z,0.10
2023-04-27T18:03:53.703Z,0.10
2023-04-27T18:06:21.435Z,0.10
2023-04-27T18:08:48.868Z,0.10
2023-04-27T18:11:15.937Z,0.10
2023-04-27T18:13:43.267Z,0.10
2023-04-27T18:16:10.101Z,0.10
2023-04-27T18:18:36.925Z,0.10
2023-04-27T18:21:03.783Z,0.10
2023-04-27T18:23:30.754Z,0.10
2023-04-27T18:26:00.381Z,0.10
2023-04-27T18:28:27.272Z,0.10
2023-04-27T18:30:53.974Z,0.10
2023-04-27T18:33:21.260Z,0.10
2023-04-27T18:35:48.182Z,0.10
2023-04-27T18:38:14.879Z,0.10
2023-04-27T18:40:42.079Z,0.10
2023-04-27T18:43:08.954Z,0.10
2023-04-27T18:45:35.809Z,0.10
2023-04-27T18:48:02.700Z,0.10
2023-04-27T18:50:29.718Z,0.10
2023-04-27T18:52:56.864Z,0.10
2023-04-27T18:55:23.500Z,0.10
2023-04-27T18:57:50.298Z,0.10
2023-04-27T19:00:17.580Z,0.10
2023-04-27T19:02:44.467Z,0.10
2023-04-27T19:05:13.443Z,0.10
2023-04-27T19:07:40.980Z,0.10
2023-04-27T19:10:08.455Z,0.10
2023-04-27T19:12:35.907Z,0.10
2023-04-27T19:15:03.004Z,0.10
2023-04-27T19:17:32.747Z,0.10
2023-04-27T19:19:59.807Z,0.10
2023-04-27T19:22:27.894Z,0.10
2023-04-27T19:24:54.611Z,0.10
2023-04-27T19:27:21.413Z,0.10
2023-04-27T19:29:52.959Z,0.10
2023-04-27T19:32:20.694Z,0.10
2023-04-27T19:34:47.678Z,0.20
2023-04-27T19:37:14.750Z,0.15
2023-04-27T19:39:41.503Z,0.10
2023-04-27T19:42:08.340Z,0.10
2023-04-27T19:44:35.171Z,0.10
2023-04-27T19:47:02.311Z,0.10
2023-04-27T19:49:32.882Z,0.20
2023-04-27T19:52:00.552Z,0.10
2023-04-27T19:54:27.638Z,0.10
2023-04-27T19:56:55.063Z,0.10
2023-04-27T19:59:22.306Z,0.10
2023-04-27T20:01:49.302Z,0.10
2023-04-27T20:04:18.315Z,0.10
2023-04-27T20:06:46.724Z,0.10
2023-04-27T20:09:13.625Z,0.10
2023-04-27T20:11:40.583Z,0.20
2023-04-27T20:14:07.332Z,0.10
2023-04-27T20:16:34.125Z,0.10
2023-04-27T20:19:00.874Z,0.10
2023-04-27T20:21:28.186Z,0.20
2023-04-27T20:23:55.008Z,0.10
2023-04-27T20:26:22.585Z,0.10
2023-04-27T20:28:49.549Z,0.20
2023-04-27T20:31:16.531Z,0.10
2023-04-27T20:33:43.452Z,0.10
2023-04-27T20:36:17.055Z,0.20
2023-04-27T20:38:45.435Z,0.10
2023-04-27T20:41:12.642Z,0.20
2023-04-27T20:43:40.014Z,0.20
2023-04-27T20:46:15.624Z,0.10
2023-04-27T20:48:42.508Z,0.20
2023-04-27T20:51:09.373Z,0.17
2023-04-27T20:53:36.484Z,0.13
2023-04-27T20:56:03.784Z,0.20
2023-04-27T20:58:30.588Z,0.10
2023-04-27T21:00:57.430Z,0.20
2023-04-27T21:03:24.443Z,0.10
2023-04-27T21:05:51.605Z,0.15
2023-04-27T21:08:19.066Z,0.20
2023-04-27T21:10:45.786Z,0.10
2023-04-27T21:13:12.520Z,0.20
2023-04-27T21:15:39.293Z,0.10
2023-04-27T21:18:07.841Z,0.20
2023-04-27T21:20:36.349Z,0.10
2023-04-27T21:23:03.420Z,0.20
2023-04-27T21:25:30.154Z,0.20
2023-04-27T21:27:56.859Z,0.10
2023-04-27T21:30:23.693Z,0.20
2023-04-27T21:32:50.380Z,0.10
2023-04-27T21:35:17.349Z,0.20
2023-04-27T21:37:44.117Z,0.10
2023-04-27T21:40:11.234Z,0.17
2023-04-27T21:42:38.051Z,0.20
2023-04-27T21:45:21.057Z,0.10
2023-04-27T21:47:48.121Z,0.20
2023-04-27T21:50:16.448Z,0.10
2023-04-27T21:52:43.152Z,0.10
2023-04-27T21:55:10.085Z,0.20
2023-04-27T21:57:36.953Z,0.10
2023-04-27T22:00:13.040Z,0.20
2023-04-27T22:02:43.347Z,0.20
2023-04-27T22:05:10.489Z,0.10
2023-04-27T22:07:38.102Z,0.20
2023-04-27T22:10:05.751Z,0.10
2023-04-27T22:12:33.370Z,0.15
2023-04-27T22:15:00.241Z,0.10
2023-04-27T22:17:27.809Z,0.10
2023-04-27T22:19:54.849Z,0.20
2023-04-27T22:22:21.661Z,0.10
2023-04-27T22:24:48.660Z,0.20
2023-04-27T22:27:15.689Z,0.10
2023-04-27T22:29:42.401Z,0.20
2023-04-27T22:32:09.797Z,0.10
2023-04-27T22:34:37.174Z,0.20
2023-04-27T22:37:04.076Z,0.10
2023-04-27T22:39:31.586Z,0.20
2023-04-27T22:41:58.264Z,0.20
2023-04-27T22:44:24.957Z,0.10
2023-04-27T22:46:52.145Z,0.20
2023-04-27T22:49:18.942Z,0.20
2023-04-27T22:51:47.052Z,0.20
2023-04-27T22:54:14.356Z,0.10
2023-04-27T22:56:41.754Z,0.20
2023-04-27T22:59:08.842Z,0.10
2023-04-27T23:01:35.712Z,0.20
2023-04-27T23:04:02.931Z,0.17
2023-04-27T23:06:30.387Z,0.20
2023-04-27T23:08:57.281Z,0.20
2023-04-27T23:11:24.076Z,0.20
2023-04-27T23:13:50.878Z,0.20
2023-04-27T23:16:17.731Z,0.13
2023-04-27T23:18:44.605Z,0.20
2023-04-27T23:21:11.784Z,0.10
2023-04-27T23:23:38.581Z,0.20
2023-04-27T23:26:13.118Z,0.10
2023-04-27T23:28:40.145Z,0.20
2023-04-27T23:31:07.235Z,0.10
2023-04-27T23:33:34.159Z,0.20
2023-04-27T23:36:01.309Z,0.10
2023-04-27T23:38:28.110Z,0.20
2023-04-27T23:40:54.874Z,0.20
2023-04-27T23:43:21.682Z,0.20
2023-04-27T23:45:50.753Z,0.10
2023-04-27T23:48:17.668Z,0.17
2023-04-27T23:50:44.569Z,0.20
2023-04-27T23:53:11.485Z,0.10
2023-04-27T23:55:38.667Z,0.20
2023-04-27T23:58:05.838Z,0.10
